Time;durP1;ratioP1;P1;durP2;ratioP2;P2;SDS_P1;SDS_P2;PMS_P1;PMS_P2;Temp;Humidity;BMP_temperature;BMP_pressure;BME280_temperature;BME280_humidity;BME280_pressure;Samples;Min_cycle;Max_cycle;Signal;HPM_P1;HPM_P2
2022/12/28 00:02:14;;;;;;;;;;;;;;;-1.43;89.61;99165.59;5104773;28;19928;-69
2022/12/28 00:04:39;;;;;;;;;;;;;;;-1.40;89.62;99159.00;5105356;28;19931;-69
2022/12/28 00:07:05;;;;;;;;;;;;;;;-1.39;89.59;99166.00;5081802;28;19935;-68
2022/12/28 00:09:31;;;;;;;;;;;;;;;-1.38;89.32;99173.84;5100117;28;19928;-69
2022/12/28 00:11:58;;;;;;;;;;;;;;;-1.37;89.24;99167.44;5105489;28;19935;-68
2022/12/28 00:14:24;;;;;;;;;;;;;;;-1.37;89.39;99166.59;5106308;28;19927;-70
2022/12/28 00:16:50;;;;;;;;;;;;;;;-1.41;89.27;99160.84;5106395;28;19954;-68
2022/12/28 00:19:16;;;;;;;;;;;;;;;-1.44;89.35;99164.78;5087547;28;19928;-69
2022/12/28 00:21:42;;;;;;;;;;;;;;;-1.42;89.18;99164.56;5088170;28;20024;-70
2022/12/28 00:24:13;;;;;;;;;;;;;;;-1.41;89.24;99152.78;5085304;28;20407;-65
2022/12/28 00:26:39;;;;;;;;;;;;;;;-1.38;89.33;99154.22;5085140;28;19928;-66
2022/12/28 00:29:06;;;;;;;;;;;;;;;-1.39;89.19;99153.44;5070608;28;19928;-65
2022/12/28 00:31:32;;;;;;;;;;;;;;;-1.35;89.39;99151.13;5086260;28;19928;-65
2022/12/28 00:33:58;;;;;;;;;;;;;;;-1.35;89.11;99143.06;5101454;28;20326;-65
2022/12/28 00:36:23;;;;;;;;;;;;;;;-1.39;89.06;99134.66;5105028;28;19928;-66
2022/12/28 00:38:49;;;;;;;;;;;;;;;-1.37;89.06;99129.06;5104220;28;19928;-65
2022/12/28 00:41:15;;;;;;;;;;;;;;;-1.37;89.04;99127.22;5095299;28;19989;-66
2022/12/28 00:43:41;;;;;;;;;;;;;;;-1.40;89.20;99110.72;5085198;28;19951;-65
2022/12/28 00:46:09;;;;;;;;;;;;;;;-1.41;89.16;99120.59;5085267;28;20046;-65
2022/12/28 00:48:34;;;;;;;;;;;;;;;-1.40;89.20;99116.91;5091217;28;19966;-65
2022/12/28 00:51:01;;;;;;;;;;;;;;;-1.39;89.25;99117.72;5104601;28;19977;-65
2022/12/28 00:53:26;;;;;;;;;;;;;;;-1.41;89.11;99112.56;5105800;28;19927;-65
2022/12/28 00:56:03;;;;;;;;;;;;;;;-1.42;89.04;99113.59;5106936;28;20499;-67
2022/12/28 00:58:28;;;;;;;;;;;;;;;-1.42;88.93;99110.91;5068280;28;19928;-66
2022/12/28 01:00:54;;;;;;;;;;;;;;;-1.40;88.95;99111.56;5089022;28;19939;-66
2022/12/28 01:03:21;;;;;;;;;;;;;;;-1.40;89.08;99108.88;5085071;28;20001;-66
2022/12/28 01:05:47;;;;;;;;;;;;;;;-1.42;88.84;99110.91;5086516;28;20342;-66
2022/12/28 01:08:13;;;;;;;;;;;;;;;-1.44;88.77;99108.47;5086057;28;20026;-66
2022/12/28 01:10:38;;;;;;;;;;;;;;;-1.42;88.94;99113.59;5098233;28;20378;-66
2022/12/28 01:13:04;;;;;;;;;;;;;;;-1.37;89.13;99119.16;5104884;28;20034;-66
2022/12/28 01:15:30;;;;;;;;;;;;;;;-1.35;88.92;99109.03;5105776;28;19928;-67
2022/12/28 01:17:56;;;;;;;;;;;;;;;-1.37;88.73;99103.06;5102665;28;19982;-66
2022/12/28 01:20:23;;;;;;;;;;;;;;;-1.39;88.82;99098.94;5100465;28;19941;-67
2022/12/28 01:22:48;;;;;;;;;;;;;;;-1.41;88.70;99101.03;5103523;28;19953;-66
2022/12/28 01:25:14;;;;;;;;;;;;;;;-1.48;88.93;99088.47;5103348;28;19927;-66
2022/12/28 01:27:40;;;;;;;;;;;;;;;-1.45;88.98;99089.91;5105366;28;19927;-66
2022/12/28 01:30:06;;;;;;;;;;;;;;;-1.47;88.92;99082.06;5088853;28;19928;-67
2022/12/28 01:32:32;;;;;;;;;;;;;;;-1.46;88.77;99091.78;5085415;28;19928;-66
2022/12/28 01:34:58;;;;;;;;;;;;;;;-1.49;88.76;99076.06;5082617;28;19938;-67
2022/12/28 01:37:25;;;;;;;;;;;;;;;-1.48;88.63;99082.28;5095697;28;20309;-66
2022/12/28 01:39:50;;;;;;;;;;;;;;;-1.50;88.60;99082.47;5095569;28;19985;-66
2022/12/28 01:42:17;;;;;;;;;;;;;;;-1.50;88.63;99081.66;5104531;28;19928;-67
2022/12/28 01:44:44;;;;;;;;;;;;;;;-1.50;88.55;99076.31;5104515;28;19970;-66
2022/12/28 01:47:21;;;;;;;;;;;;;;;-1.52;88.77;99081.06;5104393;28;19981;-67
2022/12/28 01:49:50;;;;;;;;;;;;;;;-1.52;88.49;99081.06;5102464;28;19963;-66
2022/12/28 01:52:18;;;;;;;;;;;;;;;-1.52;88.63;99075.72;5083191;28;19989;-67
2022/12/28 01:54:51;;;;;;;;;;;;;;;-1.50;88.48;99079.00;5083786;28;19928;-66
2022/12/28 01:57:24;;;;;;;;;;;;;;;-1.51;88.25;99071.97;5095777;28;20111;-66
2022/12/28 01:59:52;;;;;;;;;;;;;;;-1.52;88.55;99064.97;5104826;28;19928;-66
2022/12/28 02:02:19;;;;;;;;;;;;;;;-1.55;87.95;99060.03;5088104;28;19997;-67
2022/12/28 02:04:46;;;;;;;;;;;;;;;-1.58;88.25;99066.66;5091179;28;19981;-65
2022/12/28 02:07:14;;;;;;;;;;;;;;;-1.58;88.32;99059.41;5102973;28;19927;-67
2022/12/28 02:09:42;;;;;;;;;;;;;;;-1.57;88.04;99065.59;5102683;28;19966;-66
2022/12/28 02:12:12;;;;;;;;;;;;;;;-1.55;88.17;99055.50;5092196;28;20414;-66
2022/12/28 02:14:38;;;;;;;;;;;;;;;-1.58;88.04;99054.03;5084473;28;19928;-65
2022/12/28 02:17:03;;;;;;;;;;;;;;;-1.60;88.03;99058.00;5094055;28;20465;-66
2022/12/28 02:19:36;;;;;;;;;;;;;;;-1.58;88.17;99051.38;5102905;28;19932;-66
2022/12/28 02:22:13;;;;;;;;;;;;;;;-1.56;87.88;99064.56;5101490;28;19942;-66
2022/12/28 02:24:53;;;;;;;;;;;;;;;-1.58;87.77;99059.41;5084097;28;20299;-66
2022/12/28 02:27:27;;;;;;;;;;;;;;;-1.60;87.74;99061.50;5084922;28;20034;-65
2022/12/28 02:30:00;;;;;;;;;;;;;;;-1.60;87.84;99055.31;5098823;28;19927;-66
2022/12/28 02:32:33;;;;;;;;;;;;;;;-1.59;87.99;99063.13;5104699;28;20770;-65
2022/12/28 02:35:02;;;;;;;;;;;;;;;-1.60;87.74;99056.13;5082521;28;19971;-65
2022/12/28 02:37:31;;;;;;;;;;;;;;;-1.58;87.85;99064.78;5096911;28;20406;-65
2022/12/28 02:40:00;;;;;;;;;;;;;;;-1.60;87.60;99058.81;5102855;28;19973;-65
2022/12/28 02:42:28;;;;;;;;;;;;;;;-1.61;87.33;99065.22;5103288;28;20022;-66
2022/12/28 02:50:38;;;;;;;;;;;;;;;-1.57;87.39;99061.06;5082359;28;20264;-68
2022/12/28 02:53:18;;;;;;;;;;;;;;;-1.56;87.32;99061.91;5083417;28;20450;-68
2022/12/28 02:56:06;;;;;;;;;;;;;;;-1.58;87.30;99066.66;5098951;28;19959;-68
2022/12/28 02:58:51;;;;;;;;;;;;;;;-1.62;87.10;99060.06;5084270;28;19935;-68
2022/12/28 03:01:25;;;;;;;;;;;;;;;-1.62;87.07;99055.53;5083436;28;19935;-68
2022/12/28 03:03:59;;;;;;;;;;;;;;;-1.61;86.95;99048.31;5082446;28;20450;-68
2022/12/28 03:09:20;;;;;;;;;;;;;;;-1.61;86.71;99054.47;5098885;28;19938;-68
2022/12/28 03:11:47;;;;;;;;;;;;;;;-1.60;86.86;99055.31;5097480;28;19935;-68
2022/12/28 03:14:17;;;;;;;;;;;;;;;-1.60;86.64;99052.63;5081506;28;20422;-68
2022/12/28 03:33:23;;;;;;;;;;;;;;;-1.62;86.23;99049.34;5103484;28;19935;-68
2022/12/28 03:35:54;;;;;;;;;;;;;;;-1.71;85.80;99041.53;5104236;28;19932;-68
2022/12/28 03:38:26;;;;;;;;;;;;;;;-1.80;86.26;99029.41;5084655;28;19935;-67
2022/12/28 03:40:53;;;;;;;;;;;;;;;-1.69;86.06;99046.69;5081663;28;20284;-68
2022/12/28 03:43:42;;;;;;;;;;;;;;;-1.68;86.12;99042.97;5083399;28;20005;-68
2022/12/28 03:46:16;;;;;;;;;;;;;;;-1.67;86.09;99038.41;5102418;28;19974;-67
2022/12/28 03:48:43;;;;;;;;;;;;;;;-1.68;86.28;99034.94;5086084;28;19928;-67
2022/12/28 03:51:11;;;;;;;;;;;;;;;-1.67;86.13;99039.25;5064380;28;19959;-65
2022/12/28 03:53:40;;;;;;;;;;;;;;;-1.62;86.05;99036.75;5063146;28;19973;-65
2022/12/28 03:56:09;;;;;;;;;;;;;;;-1.81;85.91;99014.34;5083068;28;20426;-64
2022/12/28 03:58:35;;;;;;;;;;;;;;;-1.62;85.95;99034.06;5088797;28;20169;-65
2022/12/28 04:01:02;;;;;;;;;;;;;;;-1.69;85.92;99032.47;5079119;28;20027;-66
2022/12/28 04:03:28;;;;;;;;;;;;;;;-1.71;86.21;99030.00;5080390;28;20384;-65
2022/12/28 04:05:55;;;;;;;;;;;;;;;-1.71;86.11;99036.16;5065487;28;19966;-65
2022/12/28 04:08:22;;;;;;;;;;;;;;;-1.69;86.12;99027.94;5083467;28;19927;-65
2022/12/28 04:10:48;;;;;;;;;;;;;;;-1.67;86.30;99028.53;5081234;28;19935;-65
2022/12/28 04:13:13;;;;;;;;;;;;;;;-1.59;86.22;99024.78;5085210;28;19955;-65
2022/12/28 04:15:56;;;;;;;;;;;;;;;-1.60;86.10;99029.31;5088798;28;20294;-68
2022/12/28 04:18:21;;;;;;;;;;;;;;;-1.57;86.07;99030.75;5101814;28;19928;-68
2022/12/28 04:20:47;;;;;;;;;;;;;;;-1.60;86.18;99023.94;5086675;28;19932;-68
2022/12/28 04:23:13;;;;;;;;;;;;;;;-1.55;86.19;99033.22;5082790;28;20031;-68
2022/12/28 04:25:40;;;;;;;;;;;;;;;-1.52;86.07;99022.88;5103221;28;19932;-68
2022/12/28 04:28:07;;;;;;;;;;;;;;;-1.55;86.09;99023.31;5101841;28;20184;-68
2022/12/28 04:30:52;;;;;;;;;;;;;;;-1.57;85.97;99020.03;5101926;28;19928;-68
2022/12/28 04:33:18;;;;;;;;;;;;;;;-1.57;86.18;99020.84;5100872;28;20284;-65
2022/12/28 04:35:46;;;;;;;;;;;;;;;-1.58;86.04;99021.88;5088657;28;19974;-66
2022/12/28 04:38:15;;;;;;;;;;;;;;;-1.58;86.17;99010.34;5068969;28;19928;-66
2022/12/28 04:40:42;;;;;;;;;;;;;;;-1.58;86.11;99011.16;5083930;28;19951;-66
2022/12/28 04:43:08;;;;;;;;;;;;;;;-1.56;86.16;99010.94;5084963;28;19931;-66
2022/12/28 04:45:33;;;;;;;;;;;;;;;-1.54;86.07;99008.06;5093389;28;19973;-66
2022/12/28 04:47:59;;;;;;;;;;;;;;;-1.52;86.12;99016.72;5105324;28;19931;-66
2022/12/28 04:50:25;;;;;;;;;;;;;;;-1.51;85.92;99015.66;5105445;28;20031;-65
2022/12/28 04:52:51;;;;;;;;;;;;;;;-1.51;85.81;99019.16;5105793;28;19936;-65
2022/12/28 04:55:17;;;;;;;;;;;;;;;-1.52;85.95;99008.66;5103483;28;20306;-65
2022/12/28 04:57:45;;;;;;;;;;;;;;;-1.55;86.13;99009.91;5084785;28;19928;-65
2022/12/28 05:00:11;;;;;;;;;;;;;;;-1.54;86.24;99013.44;5069868;28;20026;-65
2022/12/28 05:02:37;;;;;;;;;;;;;;;-1.54;86.04;99003.50;5103600;28;20402;-65
2022/12/28 05:05:03;;;;;;;;;;;;;;;-1.58;86.04;99004.97;5104935;28;19934;-66
2022/12/28 05:07:29;;;;;;;;;;;;;;;-1.61;86.36;99008.09;5106201;28;20092;-66
2022/12/28 05:09:55;;;;;;;;;;;;;;;-1.62;86.21;99004.56;5105204;28;20471;-66
2022/12/28 05:12:20;;;;;;;;;;;;;;;-1.61;86.61;99002.72;5090624;28;19954;-66
2022/12/28 05:14:47;;;;;;;;;;;;;;;-1.54;86.49;99008.06;5104166;28;19928;-65
2022/12/28 05:17:13;;;;;;;;;;;;;;;-1.55;86.47;99007.22;5095413;28;20458;-65
2022/12/28 05:19:39;;;;;;;;;;;;;;;-1.56;86.02;99005.59;5098437;28;20031;-65
2022/12/28 05:22:10;;;;;;;;;;;;;;;-1.59;86.07;99009.50;5090516;28;19928;-66
2022/12/28 05:24:36;;;;;;;;;;;;;;;-1.59;86.13;99012.19;5090965;28;19928;-66
2022/12/28 05:27:02;;;;;;;;;;;;;;;-1.55;86.36;99017.16;5088621;28;19947;-66
2022/12/28 05:29:28;;;;;;;;;;;;;;;-1.51;86.35;99013.00;5095217;28;19936;-65
2022/12/28 05:31:55;;;;;;;;;;;;;;;-1.48;86.11;99005.34;4739211;28;10000307;-66
2022/12/28 05:34:20;;;;;;;;;;;;;;;-1.48;85.77;99013.38;5087555;28;19928;-68
2022/12/28 05:36:46;;;;;;;;;;;;;;;-1.49;85.68;99016.28;5094860;28;19935;-68
2022/12/28 05:39:12;;;;;;;;;;;;;;;-1.52;85.57;99005.97;5081160;28;20238;-68
2022/12/28 05:41:38;;;;;;;;;;;;;;;-1.57;85.63;99011.97;5080712;28;19928;-68
2022/12/28 05:44:04;;;;;;;;;;;;;;;-1.61;85.75;99016.13;5081964;28;19932;-68
2022/12/28 05:46:30;;;;;;;;;;;;;;;-1.62;85.83;99017.19;5080648;28;20470;-68
2022/12/28 05:48:57;;;;;;;;;;;;;;;-1.61;85.62;99019.63;5098006;28;19974;-66
2022/12/28 05:51:24;;;;;;;;;;;;;;;-1.67;85.79;99020.50;5092660;28;19928;-66
2022/12/28 05:53:50;;;;;;;;;;;;;;;-1.65;85.99;99021.09;5098930;28;19951;-66
2022/12/28 05:56:18;;;;;;;;;;;;;;;-1.58;86.02;99023.75;5093288;27;20393;-66
2022/12/28 05:58:45;;;;;;;;;;;;;;;-1.58;85.92;99013.81;5097611;28;19927;-65
2022/12/28 06:01:12;;;;;;;;;;;;;;;-1.55;85.69;99017.16;5103436;28;19927;-65
2022/12/28 06:03:38;;;;;;;;;;;;;;;-1.58;85.66;99029.91;5093864;28;20030;-65
2022/12/28 06:06:06;;;;;;;;;;;;;;;-1.61;85.62;99024.19;5104666;28;19931;-65
2022/12/28 06:08:33;;;;;;;;;;;;;;;-1.58;85.69;99034.47;5107957;28;19927;-66
2022/12/28 06:11:00;;;;;;;;;;;;;;;-1.54;85.57;99029.50;5101765;28;19928;-65
2022/12/28 06:13:25;;;;;;;;;;;;;;;-1.57;85.40;99023.50;5093513;28;19935;-65
2022/12/28 06:15:51;;;;;;;;;;;;;;;-1.57;85.62;99034.25;5086587;28;19936;-67
2022/12/28 06:18:17;;;;;;;;;;;;;;;-1.54;85.57;99041.03;5087660;28;19938;-68
2022/12/28 06:20:42;;;;;;;;;;;;;;;-1.53;85.33;99031.16;5100213;28;20362;-68
2022/12/28 06:23:10;;;;;;;;;;;;;;;-1.53;85.37;99042.69;5098684;28;19927;-67
2022/12/28 06:25:36;;;;;;;;;;;;;;;-1.55;85.22;99038.59;5105367;28;19927;-68
2022/12/28 06:28:02;;;;;;;;;;;;;;;-1.55;85.02;99039.41;5103765;28;20034;-67
2022/12/28 06:30:27;;;;;;;;;;;;;;;-1.59;85.14;99033.63;5105553;28;20034;-67
2022/12/28 06:32:54;;;;;;;;;;;;;;;-1.54;85.17;99037.56;5103456;28;19935;-67
2022/12/28 06:35:20;;;;;;;;;;;;;;;-1.52;85.01;99036.28;5086755;28;19927;-67
2022/12/28 06:37:46;;;;;;;;;;;;;;;-1.52;85.33;99033.59;5081779;28;19934;-67
2022/12/28 06:40:13;;;;;;;;;;;;;;;-1.51;85.36;99031.75;5080171;28;19928;-68
2022/12/28 06:42:39;;;;;;;;;;;;;;;-1.46;85.55;99034.63;5077431;28;19962;-67
2022/12/28 06:45:05;;;;;;;;;;;;;;;-1.44;85.54;99033.38;5080013;28;20039;-68
2022/12/28 06:47:32;;;;;;;;;;;;;;;-1.40;85.37;99036.44;5078110;28;19928;-68
2022/12/28 06:49:58;;;;;;;;;;;;;;;-1.36;85.17;99037.66;5085399;28;20399;-67
2022/12/28 06:52:24;;;;;;;;;;;;;;;-1.29;85.17;99037.63;5087773;28;19934;-68
2022/12/28 06:54:49;;;;;;;;;;;;;;;-1.24;85.02;99029.75;5103588;28;19932;-68
2022/12/28 06:57:16;;;;;;;;;;;;;;;-1.19;84.97;99027.22;5102577;28;20525;-67
2022/12/28 06:59:42;;;;;;;;;;;;;;;-1.17;84.48;99033.22;5103032;28;19934;-67
2022/12/28 07:02:08;;;;;;;;;;;;;;;-1.18;84.36;99028.88;5104003;28;19927;-67
2022/12/28 07:04:34;;;;;;;;;;;;;;;-1.21;83.95;99031.19;5095740;28;20342;-67
2022/12/28 07:06:59;;;;;;;;;;;;;;;-1.23;84.22;99027.91;5092108;28;19932;-67
2022/12/28 07:09:25;;;;;;;;;;;;;;;-1.23;84.31;99028.69;5102833;28;19981;-67
2022/12/28 07:11:51;;;;;;;;;;;;;;;-1.24;84.41;99036.97;5092157;28;20382;-67
2022/12/28 07:14:18;;;;;;;;;;;;;;;-1.24;84.53;99034.28;5084865;28;19935;-67
2022/12/28 07:16:44;;;;;;;;;;;;;;;-1.21;84.61;99037.34;5088270;28;19927;-67
2022/12/28 07:19:09;;;;;;;;;;;;;;;-1.18;84.61;99028.06;5081671;28;20419;-67
2022/12/28 07:21:36;;;;;;;;;;;;;;;-1.18;84.38;99028.88;5092150;28;19985;-67
2022/12/28 07:24:02;;;;;;;;;;;;;;;-1.18;84.65;99036.09;5104075;28;20036;-67
2022/12/28 07:26:29;;;;;;;;;;;;;;;-1.18;84.56;99041.47;5102888;28;19928;-66
2022/12/28 07:28:56;;;;;;;;;;;;;;;-1.15;84.37;99041.03;5085696;28;20399;-67
2022/12/28 07:31:24;;;;;;;;;;;;;;;-1.13;84.33;99035.47;5086972;28;20034;-67
2022/12/28 07:33:51;;;;;;;;;;;;;;;-1.16;84.31;99042.91;5096908;28;19928;-66
2022/12/28 07:36:20;;;;;;;;;;;;;;;-1.13;84.21;99041.63;5100638;28;19996;-67
2022/12/28 07:38:46;;;;;;;;;;;;;;;-1.13;84.20;99052.38;5097203;28;19931;-67
2022/12/28 07:41:13;;;;;;;;;;;;;;;-1.15;84.13;99049.91;5091306;28;20015;-66
2022/12/28 07:43:39;;;;;;;;;;;;;;;-1.18;84.26;99054.88;5102385;28;19992;-67
2022/12/28 07:46:06;;;;;;;;;;;;;;;-1.15;84.06;99049.09;5086251;28;19928;-67
2022/12/28 07:48:33;;;;;;;;;;;;;;;-1.10;84.25;99048.44;5083585;28;19928;-67
2022/12/28 07:51:04;;;;;;;;;;;;;;;-1.09;84.03;99050.09;5084225;28;20415;-67
2022/12/28 07:53:30;;;;;;;;;;;;;;;-1.09;84.18;99047.41;5083208;28;20712;-67
2022/12/28 07:55:57;;;;;;;;;;;;;;;-1.05;84.46;99040.56;5086164;28;19928;-67
2022/12/28 07:58:22;;;;;;;;;;;;;;;-1.04;84.32;99047.56;5095975;28;19927;-67
2022/12/28 08:00:49;;;;;;;;;;;;;;;-0.97;84.39;99042.97;5106051;28;19951;-68
2022/12/28 08:03:15;;;;;;;;;;;;;;;-0.92;84.29;99043.16;5104827;28;19927;-67
2022/12/28 08:05:42;;;;;;;;;;;;;;;-0.91;84.19;99034.03;5105339;28;19972;-67
2022/12/28 08:08:08;;;;;;;;;;;;;;;-0.92;84.05;99035.09;5101661;28;19935;-67
2022/12/28 08:10:34;;;;;;;;;;;;;;;-0.93;84.00;99030.75;5107452;28;19928;-67
2022/12/28 08:12:59;;;;;;;;;;;;;;;-0.88;83.92;99030.91;5107885;28;20424;-67
2022/12/28 08:15:25;;;;;;;;;;;;;;;-0.87;83.63;99031.75;5108652;28;20026;-67
2022/12/28 08:17:52;;;;;;;;;;;;;;;-0.84;83.62;99039.38;5108163;28;19932;-66
2022/12/28 08:20:18;;;;;;;;;;;;;;;-0.83;83.38;99037.53;5099022;28;19932;-66
2022/12/28 08:22:45;;;;;;;;;;;;;;;-0.84;83.51;99046.63;5086947;28;19935;-66
2022/12/28 08:25:11;;;;;;;;;;;;;;;-0.82;83.58;99039.16;5097980;28;19928;-66
2022/12/28 08:27:36;;;;;;;;;;;;;;;-0.80;83.39;99040.56;5098906;28;19978;-66
2022/12/28 08:30:03;;;;;;;;;;;;;;;-0.78;83.18;99043.88;5091507;28;19928;-67
2022/12/28 08:32:29;;;;;;;;;;;;;;;-0.77;83.32;99040.16;5103357;28;20361;-66
2022/12/28 08:34:54;;;;;;;;;;;;;;;-0.73;82.96;99041.34;5090179;28;19928;-66
2022/12/28 08:37:20;;;;;;;;;;;;;;;-0.71;82.96;99035.75;5089965;28;19927;-66
2022/12/28 08:39:47;;;;;;;;;;;;;;;-0.68;82.83;99031.81;5088185;28;19928;-66
2022/12/28 08:42:13;;;;;;;;;;;;;;;-0.65;82.72;99031.38;5088922;28;19950;-66
2022/12/28 08:44:38;;;;;;;;;;;;;;;-0.64;82.81;99035.69;5097806;28;19928;-66
2022/12/28 08:47:04;;;;;;;;;;;;;;;-0.65;82.78;99039.41;5097516;28;19978;-66
2022/12/28 08:49:30;;;;;;;;;;;;;;;-0.66;82.91;99043.97;5088535;28;20470;-67
2022/12/28 08:51:56;;;;;;;;;;;;;;;-0.69;82.66;99040.91;5096959;28;20034;-67
2022/12/28 08:54:22;;;;;;;;;;;;;;;-0.72;82.66;99040.31;5103488;28;20315;-67
2022/12/28 08:56:51;;;;;;;;;;;;;;;-0.72;82.62;99032.25;5095980;28;19928;-67
2022/12/28 08:59:17;;;;;;;;;;;;;;;-0.69;82.88;99041.75;5095817;28;20363;-67
2022/12/28 09:01:44;;;;;;;;;;;;;;;-0.73;82.92;99040.50;5094811;28;20262;-67
2022/12/28 09:04:11;;;;;;;;;;;;;;;-0.72;82.90;99042.16;5094969;28;19928;-67
2022/12/28 09:06:37;;;;;;;;;;;;;;;-0.73;83.10;99040.50;5098961;28;19928;-67
2022/12/28 09:09:04;;;;;;;;;;;;;;;-0.75;83.08;99040.75;5101814;28;19977;-67
2022/12/28 09:11:30;;;;;;;;;;;;;;;-0.72;82.73;99040.31;5087501;28;19940;-67
2022/12/28 09:13:57;;;;;;;;;;;;;;;-0.70;82.74;99045.47;5106304;28;19928;-67
2022/12/28 09:16:24;;;;;;;;;;;;;;;-0.73;82.78;99044.03;5102697;28;20417;-67
2022/12/28 09:18:51;;;;;;;;;;;;;;;-0.72;82.83;99053.72;5101029;28;19928;-67
2022/12/28 09:21:18;;;;;;;;;;;;;;;-0.71;83.16;99051.84;5100954;28;19927;-68
2022/12/28 09:23:45;;;;;;;;;;;;;;;-0.63;83.06;99042.69;5096858;28;20223;-68
2022/12/28 09:26:11;;;;;;;;;;;;;;;-0.58;82.76;99050.94;5100588;28;19928;-69
2022/12/28 09:28:38;;;;;;;;;;;;;;;-0.57;82.39;99041.84;5091593;28;19927;-68
2022/12/28 09:31:07;;;;;;;;;;;;;;;-0.62;82.56;99041.69;5091806;28;19915;-68
2022/12/28 09:36:18;;;;;;;;;;;;;;;-0.57;82.20;99042.66;5067482;28;19928;-69
2022/12/28 09:38:43;;;;;;;;;;;;;;;-0.55;82.23;99041.59;5091156;28;20503;-69
2022/12/28 09:41:10;;;;;;;;;;;;;;;-0.56;82.29;99030.06;5064028;28;19936;-69
2022/12/28 09:43:38;;;;;;;;;;;;;;;-0.57;82.38;99029.22;5091370;28;19935;-69
2022/12/28 09:46:04;;;;;;;;;;;;;;;-0.54;82.53;99029.84;5104078;28;20346;-69
2022/12/28 09:48:32;;;;;;;;;;;;;;;-0.43;82.59;99037.16;5104551;28;19931;-69
2022/12/28 09:50:58;;;;;;;;;;;;;;;-0.39;82.61;99035.69;5103677;28;19935;-69
2022/12/28 09:53:28;;;;;;;;;;;;;;;-0.31;82.53;99037.28;5104645;28;19989;-69
2022/12/28 09:55:58;;;;;;;;;;;;;;;-0.21;82.23;99045.63;5102359;28;20026;-69
2022/12/28 09:58:26;;;;;;;;;;;;;;;-0.18;82.44;99041.69;5091803;28;19928;-69
2022/12/28 10:00:53;;;;;;;;;;;;;;;-0.15;82.40;99043.91;5067728;28;19932;-69
2022/12/28 10:03:21;;;;;;;;;;;;;;;-0.16;82.09;99045.81;5086625;28;19928;-70
2022/12/28 10:05:49;;;;;;;;;;;;;;;-0.18;82.04;99045.19;5078658;28;19927;-69
2022/12/28 10:08:16;;;;;;;;;;;;;;;-0.19;82.14;99048.09;5102578;28;19942;-69
2022/12/28 10:10:42;;;;;;;;;;;;;;;-0.23;82.41;99047.72;5105156;28;19974;-69
2022/12/28 10:13:13;;;;;;;;;;;;;;;-0.52;82.25;99008.97;5106503;28;20290;-69
2022/12/28 10:15:39;;;;;;;;;;;;;;;-0.47;82.20;99023.38;5105205;28;19942;-69
2022/12/28 10:18:05;;;;;;;;;;;;;;;-0.45;82.20;99039.25;5088705;28;20171;-69
2022/12/28 10:20:31;;;;;;;;;;;;;;;-0.58;82.62;99045.56;5102453;28;19931;-69
2022/12/28 10:22:58;;;;;;;;;;;;;;;-0.61;83.07;99051.38;5108335;28;19927;-69
2022/12/28 10:25:25;;;;;;;;;;;;;;;-0.53;82.74;99061.03;5104622;28;20313;-69
2022/12/28 10:27:51;;;;;;;;;;;;;;;-0.46;82.80;99061.78;5102804;28;19927;-69
2022/12/28 10:30:17;;;;;;;;;;;;;;;-0.43;82.66;99061.34;5101179;28;19934;-70
2022/12/28 10:32:47;;;;;;;;;;;;;;;-0.54;82.89;99076.31;5090816;28;19935;-69
2022/12/28 10:35:20;;;;;;;;;;;;;;;-0.54;82.85;99070.13;5074322;28;19981;-69
2022/12/28 10:37:46;;;;;;;;;;;;;;;-0.60;83.16;99077.19;5055963;28;19971;-69
2022/12/28 10:40:19;;;;;;;;;;;;;;;-0.62;83.10;99072.03;5065413;28;20327;-69
2022/12/28 10:42:50;;;;;;;;;;;;;;;-0.67;83.26;99068.34;5083371;28;19928;-68
2022/12/28 10:45:16;;;;;;;;;;;;;;;-0.72;83.42;99069.84;5066268;28;20411;-68
2022/12/28 10:47:45;;;;;;;;;;;;;;;-0.75;83.55;99064.91;5084438;28;19934;-68
2022/12/28 10:50:25;;;;;;;;;;;;;;;-0.77;83.57;99067.00;5085340;28;19931;-69
2022/12/28 10:52:55;;;;;;;;;;;;;;;-0.77;83.56;99068.84;5098088;28;19932;-68
2022/12/28 10:55:30;;;;;;;;;;;;;;;-0.78;83.82;99068.03;5104871;28;19955;-68
2022/12/28 10:58:13;;;;;;;;;;;;;;;-0.72;83.86;99059.09;5103700;28;20022;-68
2022/12/28 11:00:38;;;;;;;;;;;;;;;-0.73;84.05;99056.63;5094352;28;20394;-68
2022/12/28 11:03:15;;;;;;;;;;;;;;;-0.76;83.93;99057.91;5097556;28;19927;-69
2022/12/28 11:05:41;;;;;;;;;;;;;;;-0.82;84.10;99064.13;5086450;28;19936;-69
2022/12/28 11:08:11;;;;;;;;;;;;;;;-0.83;84.13;99061.69;5087343;28;19936;-69
2022/12/28 11:10:39;;;;;;;;;;;;;;;-0.90;84.34;99054.47;5094642;28;20347;-69
2022/12/28 11:13:08;;;;;;;;;;;;;;;-0.93;84.53;99051.44;5071285;28;20312;-69
2022/12/28 11:15:34;;;;;;;;;;;;;;;-0.96;84.73;99057.22;5103222;28;20079;-69
2022/12/28 11:18:00;;;;;;;;;;;;;;;-1.02;84.97;99048.16;5106461;28;20148;-69
2022/12/28 11:20:29;;;;;;;;;;;;;;;-0.98;84.92;99059.28;5105269;28;19981;-71
2022/12/28 11:22:55;;;;;;;;;;;;;;;-0.98;84.84;99046.72;5104732;28;19934;-69
2022/12/28 11:25:25;;;;;;;;;;;;;;;-0.98;84.87;99051.25;5095634;28;19928;-69
2022/12/28 11:27:52;;;;;;;;;;;;;;;-0.92;85.25;99053.88;5084349;28;19999;-69
2022/12/28 11:30:18;;;;;;;;;;;;;;;-0.78;84.89;99056.47;5084421;28;20447;-69
2022/12/28 11:32:47;;;;;;;;;;;;;;;-0.69;84.73;99051.66;5082493;28;19983;-69
2022/12/28 11:35:15;;;;;;;;;;;;;;;-0.66;84.83;99057.41;5085258;28;19963;-69
2022/12/28 11:37:47;;;;;;;;;;;;;;;-0.63;84.64;99070.38;5083394;28;20352;-69
2022/12/28 11:40:36;;;;;;;;;;;;;;;-0.62;84.76;99069.34;5084282;28;20280;-69
2022/12/28 11:43:03;;;;;;;;;;;;;;;-0.55;84.58;99063.09;5082507;28;20391;-69
2022/12/28 11:45:48;;;;;;;;;;;;;;;-0.52;84.59;99058.09;5090542;28;19967;-69
2022/12/28 11:48:33;;;;;;;;;;;;;;;-0.49;84.49;99064.91;5089809;28;19935;-69
2022/12/28 11:51:02;;;;;;;;;;;;;;;-0.52;84.53;99068.84;5090995;28;20421;-69
2022/12/28 11:53:43;;;;;;;;;;;;;;;-0.52;84.71;99076.09;5088931;28;19950;-69
2022/12/28 11:56:09;;;;;;;;;;;;;;;-0.48;84.82;99066.56;5089839;28;19927;-69
2022/12/28 11:58:53;;;;;;;;;;;;;;;-0.44;84.83;99059.69;4380818;28;10000498;-70
2022/12/28 12:01:39;;;;;;;;;;;;;;;-0.46;84.78;99068.00;5094739;28;19951;-68
2022/12/28 12:04:14;;;;;;;;;;;;;;;-0.48;84.98;99066.56;5104668;28;19927;-68
2022/12/28 12:07:02;;;;;;;;;;;;;;;-0.47;84.98;99069.03;5087423;28;19932;-68
2022/12/28 12:09:39;;;;;;;;;;;;;;;-0.52;85.00;99070.72;5102591;28;19924;-68
2022/12/28 12:12:30;;;;;;;;;;;;;;;-0.51;85.13;99085.81;5103127;28;19931;-69
2022/12/28 12:15:01;;;;;;;;;;;;;;;-0.48;85.15;99086.16;5101357;28;19927;-68
2022/12/28 12:17:31;;;;;;;;;;;;;;;-0.46;84.93;99088.66;5048186;28;19928;-68
2022/12/28 12:19:59;;;;;;;;;;;;;;;-0.49;84.98;99087.22;5085742;28;19935;-68
2022/12/28 12:22:28;;;;;;;;;;;;;;;-0.52;84.83;99100.28;5081679;28;19935;-68
2022/12/28 12:24:56;;;;;;;;;;;;;;;-0.54;84.90;99097.78;5092369;28;19974;-68
2022/12/28 12:27:35;;;;;;;;;;;;;;;-0.60;84.88;99099.50;5081837;28;19928;-68
2022/12/28 12:30:05;;;;;;;;;;;;;;;-0.61;84.60;99094.34;5096381;28;20009;-68
2022/12/28 12:32:37;;;;;;;;;;;;;;;-0.64;84.61;99102.81;5081943;28;19934;-69
2022/12/28 12:35:03;;;;;;;;;;;;;;;-0.59;84.98;99105.69;5093703;28;19927;-68
2022/12/28 12:37:36;;;;;;;;;;;;;;;-0.65;84.91;99093.97;5087390;28;20040;-68
2022/12/28 12:40:16;;;;;;;;;;;;;;;-0.58;84.99;99108.16;5081210;28;19942;-68
2022/12/28 12:42:48;;;;;;;;;;;;;;;-0.60;84.87;99104.88;5046914;28;19935;-68
2022/12/28 12:45:21;;;;;;;;;;;;;;;-0.61;84.78;99100.53;5079854;28;19928;-68
2022/12/28 12:48:07;;;;;;;;;;;;;;;-0.64;84.46;99121.63;5083771;28;20025;-68
2022/12/28 12:50:46;;;;;;;;;;;;;;;-0.64;84.21;99113.56;5084491;28;20412;-68
2022/12/28 12:53:19;;;;;;;;;;;;;;;-0.73;83.70;99116.53;5098666;28;20422;-68
2022/12/28 12:55:53;;;;;;;;;;;;;;;-0.75;83.74;99128.53;5080004;28;20485;-68
2022/12/28 12:58:22;;;;;;;;;;;;;;;-0.77;83.41;99138.66;5095802;28;20447;-68
2022/12/28 13:00:57;;;;;;;;;;;;;;;-0.77;83.22;99134.13;5084412;28;19928;-68
2022/12/28 13:03:28;;;;;;;;;;;;;;;-0.75;83.14;99137.41;5085050;28;20387;-68
2022/12/28 13:05:56;;;;;;;;;;;;;;;-0.75;82.89;99140.09;5088336;28;20164;-68
2022/12/28 13:08:24;;;;;;;;;;;;;;;-0.79;82.77;99144.22;5087793;28;20017;-68
2022/12/28 13:10:51;;;;;;;;;;;;;;;-0.87;82.78;99150.69;5095312;28;19939;-68
2022/12/28 13:13:20;;;;;;;;;;;;;;;-0.91;83.12;99154.84;5072723;28;19954;-68
2022/12/28 13:15:46;;;;;;;;;;;;;;;-0.94;83.06;99151.75;5097690;28;19936;-68
2022/12/28 13:18:16;;;;;;;;;;;;;;;-1.01;82.95;99149.94;5066422;28;19935;-68
2022/12/28 13:20:51;;;;;;;;;;;;;;;-1.04;83.36;99149.53;5090655;28;19928;-68